Time;durP1;ratioP1;P1;durP2;ratioP2;P2;SDS_P1;SDS_P2;PMS_P1;PMS_P2;Temp;Humidity;BMP_temperature;BMP_pressure;BME280_temperature;BME280_humidity;BME280_pressure;Samples;Min_cycle;Max_cycle;Signal;HPM_P1;HPM_P2
2021/07/12 00:00:21;;;;;;;1.30;1.20;;;;;;;;;;5014517;28;20037;-76
2021/07/12 00:02:48;;;;;;;1.50;1.40;;;;;;;;;;5023357;28;20032;-75
2021/07/12 00:05:14;;;;;;;1.13;1.05;;;;;;;;;;5032511;28;20068;-76
2021/07/12 00:07:40;;;;;;;1.23;1.10;;;;;;;;;;5032106;28;20115;-77
2021/07/12 00:10:08;;;;;;;1.10;1.08;;;;;;;;;;5031794;28;20030;-76
2021/07/12 00:12:34;;;;;;;1.23;1.10;;;;;;;;;;5028946;28;20180;-75
2021/07/12 00:15:01;;;;;;;1.13;1.05;;;;;;;;;;5012171;28;20033;-76
2021/07/12 00:17:27;;;;;;;1.25;1.23;;;;;;;;;;5012357;28;20025;-77
2021/07/12 00:19:53;;;;;;;1.63;1.52;;;;;;;;;;5012404;28;20026;-76
2021/07/12 00:22:19;;;;;;;1.05;1.05;;;;;;;;;;5012497;28;20026;-75
2021/07/12 00:24:45;;;;;;;1.30;1.20;;;;;;;;;;5012384;28;20044;-75
2021/07/12 00:27:11;;;;;;;1.40;1.30;;;;;;;;;;5013502;28;20033;-75
2021/07/12 00:29:37;;;;;;;1.60;1.50;;;;;;;;;;5012855;28;20038;-76
2021/07/12 00:32:03;;;;;;;1.70;1.60;;;;;;;;;;5021119;28;20117;-75
2021/07/12 00:34:29;;;;;;;1.48;1.38;;;;;;;;;;5000750;28;20398;-76
2021/07/12 00:36:55;;;;;;;2.13;1.23;;;;;;;;;;5012253;28;20036;-76
2021/07/12 00:39:21;;;;;;;1.70;1.50;;;;;;;;;;5011998;28;20471;-76
2021/07/12 00:41:47;;;;;;;1.40;1.30;;;;;;;;;;5012036;28;20460;-76
2021/07/12 00:44:13;;;;;;;1.17;1.10;;;;;;;;;;5011587;28;20049;-76
2021/07/12 00:46:39;;;;;;;1.95;1.50;;;;;;;;;;5013842;28;20025;-75
2021/07/12 00:49:07;;;;;;;1.20;1.15;;;;;;;;;;5015767;28;20057;-76
2021/07/12 00:51:33;;;;;;;1.40;1.30;;;;;;;;;;5015968;28;20022;-76
2021/07/12 00:53:59;;;;;;;1.58;1.48;;;;;;;;;;5015630;28;20022;-75
2021/07/12 00:56:25;;;;;;;1.77;1.67;;;;;;;;;;5015687;28;20030;-76
2021/07/12 00:58:51;;;;;;;2.55;2.00;;;;;;;;;;5015710;28;20029;-76
2021/07/12 01:01:17;;;;;;;2.40;1.80;;;;;;;;;;5023474;28;20022;-75
2021/07/12 01:03:43;;;;;;;2.53;2.25;;;;;;;;;;5015677;28;20029;-76
2021/07/12 01:06:09;;;;;;;1.90;1.80;;;;;;;;;;5015234;28;20034;-76
2021/07/12 01:08:36;;;;;;;2.22;2.03;;;;;;;;;;5014884;28;20029;-75
2021/07/12 01:11:10;;;;;;;3.05;1.60;;;;;;;;;;5015381;28;20402;-76
2021/07/12 01:13:54;;;;;;;1.80;1.70;;;;;;;;;;5015785;28;20514;-76
2021/07/12 01:16:32;;;;;;;1.88;1.75;;;;;;;;;;5015197;28;20030;-77
2021/07/12 01:19:15;;;;;;;2.10;1.50;;;;;;;;;;5015576;28;20030;-74
2021/07/12 01:21:59;;;;;;;1.75;1.65;;;;;;;;;;5018801;28;20519;-76
2021/07/12 01:24:31;;;;;;;1.88;1.77;;;;;;;;;;5017062;28;20030;-75
2021/07/12 01:27:15;;;;;;;1.45;1.35;;;;;;;;;;5015310;28;20026;-76
2021/07/12 01:29:54;;;;;;;1.83;1.73;;;;;;;;;;5014673;28;20030;-75
2021/07/12 01:32:43;;;;;;;2.17;1.85;;;;;;;;;;5026732;28;20429;-75
2021/07/12 01:35:18;;;;;;;1.85;1.60;;;;;;;;;;5032871;28;20155;-76
2021/07/12 01:38:07;;;;;;;2.03;1.75;;;;;;;;;;5014976;28;20025;-76
2021/07/12 01:40:46;;;;;;;1.80;1.70;;;;;;;;;;4987038;28;20523;-75
2021/07/12 01:43:31;;;;;;;1.75;1.65;;;;;;;;;;4995445;28;20486;-75
2021/07/12 01:45:59;;;;;;;1.70;1.60;;;;;;;;;;5000696;28;20030;-77
2021/07/12 01:48:31;;;;;;;1.60;1.50;;;;;;;;;;5014717;28;20032;-75
2021/07/12 01:50:59;;;;;;;1.70;1.60;;;;;;;;;;5014595;28;20033;-75
2021/07/12 01:53:35;;;;;;;3.47;1.70;;;;;;;;;;5014880;28;20022;-77
2021/07/12 01:56:04;;;;;;;2.40;2.20;;;;;;;;;;5014703;28;20479;-76
2021/07/12 01:58:37;;;;;;;3.03;2.10;;;;;;;;;;5013997;28;20022;-75
2021/07/12 02:01:04;;;;;;;2.58;2.38;;;;;;;;;;5022210;28;20075;-76
2021/07/12 02:03:31;;;;;;;2.95;2.00;;;;;;;;;;5027565;28;20037;-76
2021/07/12 02:05:58;;;;;;;2.25;2.05;;;;;;;;;;5033796;28;20029;-75
2021/07/12 02:08:24;;;;;;;1.90;1.77;;;;;;;;;;5015702;28;20383;-76
2021/07/12 02:10:51;;;;;;;1.70;1.60;;;;;;;;;;5014362;28;20033;-76
2021/07/12 02:13:18;;;;;;;1.80;1.70;;;;;;;;;;5014618;28;20022;-75
2021/07/12 02:15:46;;;;;;;2.97;2.33;;;;;;;;;;5014199;28;20475;-76
2021/07/12 02:18:13;;;;;;;2.85;2.08;;;;;;;;;;5013906;28;20497;-76
2021/07/12 02:20:40;;;;;;;1.90;1.80;;;;;;;;;;5014078;28;20034;-76
2021/07/12 02:23:06;;;;;;;2.30;2.10;;;;;;;;;;5013907;28;20105;-76
2021/07/12 02:25:32;;;;;;;2.50;1.98;;;;;;;;;;5013750;28;20036;-75
2021/07/12 02:27:59;;;;;;;2.10;1.90;;;;;;;;;;5013363;28;20040;-76
2021/07/12 02:30:26;;;;;;;1.77;1.67;;;;;;;;;;5017428;28;20028;-76
2021/07/12 02:32:52;;;;;;;3.88;2.15;;;;;;;;;;5025032;28;20030;-76
2021/07/12 02:35:18;;;;;;;2.75;2.50;;;;;;;;;;5033385;28;20024;-76
2021/07/12 02:37:46;;;;;;;2.05;1.95;;;;;;;;;;5027654;28;20101;-76
2021/07/12 02:40:14;;;;;;;2.15;1.92;;;;;;;;;;5012856;28;20030;-77
2021/07/12 02:42:42;;;;;;;1.80;1.70;;;;;;;;;;5013532;28;20029;-77
2021/07/12 02:45:09;;;;;;;2.08;1.88;;;;;;;;;;5013651;28;20065;-76
2021/07/12 02:47:39;;;;;;;2.17;1.67;;;;;;;;;;5013259;28;20041;-76
2021/07/12 02:50:06;;;;;;;2.08;1.90;;;;;;;;;;5013249;28;20029;-76
2021/07/12 02:52:50;;;;;;;1.88;1.77;;;;;;;;;;5013519;28;20030;-76
2021/07/12 02:55:16;;;;;;;2.15;1.95;;;;;;;;;;5013737;28;20502;-77
2021/07/12 02:57:43;;;;;;;1.80;1.70;;;;;;;;;;5013684;28;20022;-76
2021/07/12 03:00:10;;;;;;;1.48;1.42;;;;;;;;;;5014505;28;20536;-76
2021/07/12 03:02:36;;;;;;;1.48;1.38;;;;;;;;;;5025135;28;20021;-76
2021/07/12 03:05:03;;;;;;;1.50;1.40;;;;;;;;;;5033554;28;20036;-75
2021/07/12 03:07:31;;;;;;;1.70;1.60;;;;;;;;;;5033005;28;20025;-75
2021/07/12 03:10:01;;;;;;;1.38;1.20;;;;;;;;;;5016405;28;20057;-76
2021/07/12 03:12:30;;;;;;;1.60;1.50;;;;;;;;;;5013442;28;20034;-75
2021/07/12 03:15:05;;;;;;;1.50;1.40;;;;;;;;;;5013539;28;20108;-76
2021/07/12 03:17:33;;;;;;;1.90;1.75;;;;;;;;;;5013334;28;20050;-75
2021/07/12 03:20:01;;;;;;;3.15;2.10;;;;;;;;;;5013371;28;20040;-76
2021/07/12 03:22:27;;;;;;;2.13;2.03;;;;;;;;;;4996160;28;20526;-76
2021/07/12 03:24:54;;;;;;;2.03;1.85;;;;;;;;;;5013366;28;20026;-76
2021/07/12 03:27:22;;;;;;;2.45;2.13;;;;;;;;;;5013060;28;20037;-77
2021/07/12 03:29:49;;;;;;;2.00;1.80;;;;;;;;;;5012688;28;20033;-77
2021/07/12 03:32:19;;;;;;;2.60;2.40;;;;;;;;;;5024775;28;20072;-75
2021/07/12 03:34:45;;;;;;;2.30;2.10;;;;;;;;;;5034291;28;20028;-77
2021/07/12 03:37:11;;;;;;;2.50;2.20;;;;;;;;;;5033995;28;20083;-76
2021/07/12 03:39:37;;;;;;;2.65;2.38;;;;;;;;;;5029636;28;20034;-76
2021/07/12 03:42:05;;;;;;;2.50;2.30;;;;;;;;;;5013438;28;20030;-78
2021/07/12 03:44:31;;;;;;;2.40;2.20;;;;;;;;;;5013525;28;20053;-78
2021/07/12 03:46:57;;;;;;;2.78;2.13;;;;;;;;;;5013540;28;20236;-77
2021/07/12 03:49:23;;;;;;;2.35;2.15;;;;;;;;;;5015782;28;20117;-77
2021/07/12 03:51:51;;;;;;;2.45;1.75;;;;;;;;;;5014816;28;20037;-77
2021/07/12 03:54:17;;;;;;;1.88;1.77;;;;;;;;;;5015841;28;20426;-77
2021/07/12 03:56:43;;;;;;;2.58;2.38;;;;;;;;;;5015330;28;20053;-77
2021/07/12 03:59:09;;;;;;;2.15;1.90;;;;;;;;;;5013225;28;20044;-77
2021/07/12 04:01:36;;;;;;;1.85;1.65;;;;;;;;;;5020922;28;20034;-77
2021/07/12 04:04:02;;;;;;;1.67;1.58;;;;;;;;;;5016559;28;20092;-77
2021/07/12 04:06:30;;;;;;;2.00;1.88;;;;;;;;;;5014808;28;20033;-77
2021/07/12 04:08:57;;;;;;;1.92;1.70;;;;;;;;;;5010153;28;20026;-76
2021/07/12 04:11:29;;;;;;;2.30;2.10;;;;;;;;;;5023299;28;20025;-77
2021/07/12 04:13:55;;;;;;;1.67;1.58;;;;;;;;;;5025461;28;20026;-76
2021/07/12 04:16:21;;;;;;;1.80;1.70;;;;;;;;;;5033681;28;20105;-76
2021/07/12 04:18:47;;;;;;;2.58;2.30;;;;;;;;;;5023257;28;20026;-76
2021/07/12 04:21:13;;;;;;;2.63;2.42;;;;;;;;;;5015493;28;20026;-76
2021/07/12 04:23:40;;;;;;;2.33;2.08;;;;;;;;;;5017644;28;20022;-76
2021/07/12 04:26:06;;;;;;;3.03;2.35;;;;;;;;;;5018818;28;20030;-77
2021/07/12 04:28:32;;;;;;;2.20;2.00;;;;;;;;;;5018188;28;20475;-77
2021/07/12 04:30:58;;;;;;;2.78;2.33;;;;;;;;;;5025412;28;20151;-75
2021/07/12 04:33:25;;;;;;;2.55;2.20;;;;;;;;;;5028747;28;20025;-78
2021/07/12 04:35:52;;;;;;;4.30;2.72;;;;;;;;;;5037543;28;20025;-77
2021/07/12 04:38:18;;;;;;;3.25;2.90;;;;;;;;;;5037055;28;20071;-75
2021/07/12 04:40:44;;;;;;;5.70;3.70;;;;;;;;;;5017483;28;20096;-76
2021/07/12 04:43:10;;;;;;;4.65;3.70;;;;;;;;;;5018058;28;20022;-77
2021/07/12 04:45:36;;;;;;;4.68;3.10;;;;;;;;;;5018040;28;20156;-76
2021/07/12 04:48:02;;;;;;;4.13;3.22;;;;;;;;;;5017398;28;20053;-76
2021/07/12 04:50:28;;;;;;;4.30;2.47;;;;;;;;;;5020129;28;20033;-80
2021/07/12 04:52:54;;;;;;;2.42;2.22;;;;;;;;;;5021917;28;20018;-79
2021/07/12 04:55:20;;;;;;;3.35;2.30;;;;;;;;;;5022024;28;20281;-79
2021/07/12 04:57:47;;;;;;;4.25;3.08;;;;;;;;;;5021772;28;20114;-79
2021/07/12 05:00:14;;;;;;;3.58;3.22;;;;;;;;;;5023257;28;20034;-78
2021/07/12 05:02:40;;;;;;;3.35;2.88;;;;;;;;;;5032168;28;20081;-78
2021/07/12 05:05:07;;;;;;;3.35;2.85;;;;;;;;;;5040931;28;20077;-79
2021/07/12 05:07:33;;;;;;;3.22;2.92;;;;;;;;;;5042031;28;20025;-78
2021/07/12 05:09:59;;;;;;;4.03;2.67;;;;;;;;;;5035526;28;20040;-78
2021/07/12 05:12:25;;;;;;;2.85;2.65;;;;;;;;;;5003617;28;20088;-79
2021/07/12 05:14:52;;;;;;;2.55;2.30;;;;;;;;;;5020837;28;20030;-79
2021/07/12 05:17:18;;;;;;;2.30;2.10;;;;;;;;;;5020456;28;20022;-79
2021/07/12 05:19:44;;;;;;;1.73;1.33;;;;;;;;;;5021891;28;20483;-79
2021/07/12 05:22:10;;;;;;;1.48;1.38;;;;;;;;;;5021405;28;20073;-78
2021/07/12 05:24:36;;;;;;;1.08;1.08;;;;;;;;;;5020295;28;20036;-79
2021/07/12 05:27:02;;;;;;;1.95;1.75;;;;;;;;;;5020932;28;20029;-78
2021/07/12 05:29:28;;;;;;;1.30;1.20;;;;;;;;;;5020965;28;20125;-78
2021/07/12 05:31:54;;;;;;;0.75;0.75;;;;;;;;;;5028667;28;20022;-78
2021/07/12 05:34:21;;;;;;;0.82;0.82;;;;;;;;;;5007649;28;20100;-79
2021/07/12 05:36:47;;;;;;;1.23;1.13;;;;;;;;;;5020732;28;20022;-80
2021/07/12 05:39:14;;;;;;;1.10;1.10;;;;;;;;;;5020206;28;20533;-79
2021/07/12 05:41:40;;;;;;;0.95;0.90;;;;;;;;;;5019998;28;20129;-79
2021/07/12 05:44:06;;;;;;;1.15;1.05;;;;;;;;;;5003587;28;20030;-78
2021/07/12 05:46:32;;;;;;;0.88;0.88;;;;;;;;;;5020301;28;20026;-79
2021/07/12 05:48:59;;;;;;;1.02;1.02;;;;;;;;;;5019984;28;20033;-78
2021/07/12 05:51:25;;;;;;;1.52;1.42;;;;;;;;;;5020728;28;20068;-78
2021/07/12 05:53:51;;;;;;;1.88;1.35;;;;;;;;;;5020656;28;20383;-77
2021/07/12 05:56:17;;;;;;;1.35;1.25;;;;;;;;;;5020976;28;20041;-78
2021/07/12 05:58:43;;;;;;;1.17;1.17;;;;;;;;;;5020398;28;20490;-78
2021/07/12 06:01:09;;;;;;;1.23;1.23;;;;;;;;;;5029009;28;20064;-80
2021/07/12 06:03:35;;;;;;;1.23;1.17;;;;;;;;;;5033269;28;20029;-79
2021/07/12 06:06:01;;;;;;;1.20;1.20;;;;;;;;;;5040675;28;20017;-81
2021/07/12 06:08:27;;;;;;;1.65;1.20;;;;;;;;;;5040696;28;20027;-80
2021/07/12 06:10:53;;;;;;;1.10;1.10;;;;;;;;;;5025804;28;20022;-79
2021/07/12 06:13:19;;;;;;;1.00;1.00;;;;;;;;;;5018852;28;20022;-79
2021/07/12 06:15:45;;;;;;;1.00;1.00;;;;;;;;;;5018122;28;20054;-79
2021/07/12 06:18:12;;;;;;;1.02;1.02;;;;;;;;;;5019307;28;20493;-77
2021/07/12 06:20:38;;;;;;;1.02;1.02;;;;;;;;;;5020081;28;20026;-79
2021/07/12 06:23:04;;;;;;;1.67;1.42;;;;;;;;;;5007096;28;20113;-79
2021/07/12 06:25:30;;;;;;;1.75;1.48;;;;;;;;;;5001118;28;20092;-80
2021/07/12 06:27:56;;;;;;;1.30;1.30;;;;;;;;;;5019009;28;20061;-80
2021/07/12 06:30:22;;;;;;;1.35;1.25;;;;;;;;;;5004528;28;20025;-80
2021/07/12 06:32:48;;;;;;;1.02;1.02;;;;;;;;;;5032192;28;20026;-79
2021/07/12 06:35:15;;;;;;;1.95;1.10;;;;;;;;;;5040504;28;20025;-80
2021/07/12 06:37:41;;;;;;;2.38;1.40;;;;;;;;;;5039979;28;20033;-78
2021/07/12 06:40:07;;;;;;;1.60;1.30;;;;;;;;;;5027411;28;20030;-80
2021/07/12 06:42:33;;;;;;;1.35;1.30;;;;;;;;;;5020442;28;20056;-79
2021/07/12 06:44:59;;;;;;;1.35;1.23;;;;;;;;;;5020831;28;20100;-79
2021/07/12 06:47:28;;;;;;;1.30;1.20;;;;;;;;;;5021033;28;20029;-81
2021/07/12 06:49:55;;;;;;;1.30;1.20;;;;;;;;;;5019092;28;21796;-80
2021/07/12 06:52:21;;;;;;;1.60;1.50;;;;;;;;;;5020113;28;20088;-78
2021/07/12 06:54:47;;;;;;;1.75;1.25;;;;;;;;;;5020445;28;20088;-79
2021/07/12 06:57:14;;;;;;;1.08;0.98;;;;;;;;;;5020382;28;20021;-79
2021/07/12 06:59:40;;;;;;;1.45;1.10;;;;;;;;;;5000328;28;20463;-79
2021/07/12 07:02:06;;;;;;;1.30;1.20;;;;;;;;;;5007805;28;20040;-78
2021/07/12 07:04:32;;;;;;;2.95;1.15;;;;;;;;;;5025525;28;20639;-80
2021/07/12 07:06:58;;;;;;;1.33;1.23;;;;;;;;;;5021176;28;20122;-80
2021/07/12 07:09:25;;;;;;;0.80;0.80;;;;;;;;;;5019976;28;20026;-79
2021/07/12 07:11:51;;;;;;;1.77;1.23;;;;;;;;;;5020316;28;20029;-80
2021/07/12 07:14:17;;;;;;;1.02;0.90;;;;;;;;;;5022680;28;20037;-78
2021/07/12 07:16:44;;;;;;;1.25;1.13;;;;;;;;;;5025524;28;20029;-79
2021/07/12 07:19:10;;;;;;;1.92;1.13;;;;;;;;;;5023511;28;20033;-78
2021/07/12 07:21:36;;;;;;;1.10;1.10;;;;;;;;;;5023728;28;20090;-80
2021/07/12 07:24:02;;;;;;;0.93;0.93;;;;;;;;;;5019029;28;20079;-79
2021/07/12 07:26:28;;;;;;;2.17;1.33;;;;;;;;;;5016678;28;20030;-79
2021/07/12 07:28:56;;;;;;;0.98;0.98;;;;;;;;;;5015345;28;20048;-78
2021/07/12 07:31:23;;;;;;;1.23;1.13;;;;;;;;;;5022935;28;20017;-79
2021/07/12 07:33:49;;;;;;;1.40;1.30;;;;;;;;;;5019610;28;20489;-79
2021/07/12 07:36:16;;;;;;;1.25;1.15;;;;;;;;;;5016082;28;20371;-78
2021/07/12 07:38:42;;;;;;;1.90;1.10;;;;;;;;;;5023260;28;20018;-77
2021/07/12 07:41:08;;;;;;;0.90;0.90;;;;;;;;;;5030116;28;20033;-78
2021/07/12 07:43:34;;;;;;;0.95;0.90;;;;;;;;;;5016197;28;20156;-78
2021/07/12 07:46:00;;;;;;;1.83;0.98;;;;;;;;;;5015529;28;20033;-79
2021/07/12 07:48:26;;;;;;;1.42;1.33;;;;;;;;;;5017752;28;20033;-79
2021/07/12 07:50:52;;;;;;;0.95;0.95;;;;;;;;;;5017944;28;20076;-78
2021/07/12 07:53:18;;;;;;;0.90;0.90;;;;;;;;;;5016417;28;20018;-78
2021/07/12 07:55:44;;;;;;;1.33;0.93;;;;;;;;;;5014414;28;20065;-77
2021/07/12 07:58:10;;;;;;;0.80;0.80;;;;;;;;;;5015634;28;20026;-79
2021/07/12 08:00:37;;;;;;;3.30;1.10;;;;;;;;;;5023126;28;20040;-78
2021/07/12 08:03:04;;;;;;;1.00;1.00;;;;;;;;;;5028143;28;20033;-78
2021/07/12 08:05:31;;;;;;;1.38;0.80;;;;;;;;;;5032238;28;20061;-78
2021/07/12 08:07:57;;;;;;;3.17;1.60;;;;;;;;;;5018218;28;20037;-78
2021/07/12 08:10:23;;;;;;;1.00;1.00;;;;;;;;;;5017169;28;20061;-78
2021/07/12 08:12:49;;;;;;;2.40;1.00;;;;;;;;;;5017017;28;20041;-78
2021/07/12 08:15:17;;;;;;;1.58;0.82;;;;;;;;;;5017077;28;20026;-77
2021/07/12 08:17:44;;;;;;;1.30;0.80;;;;;;;;;;5015436;28;20034;-78
2021/07/12 08:20:11;;;;;;;0.80;0.80;;;;;;;;;;5019994;28;20022;-79
2021/07/12 08:22:38;;;;;;;2.17;1.00;;;;;;;;;;5017636;28;20025;-77
2021/07/12 08:25:05;;;;;;;1.00;1.00;;;;;;;;;;5015296;28;20029;-77
2021/07/12 08:27:32;;;;;;;1.00;1.00;;;;;;;;;;5016491;28;20037;-79
2021/07/12 08:29:58;;;;;;;2.35;0.98;;;;;;;;;;5018477;28;20030;-78
2021/07/12 08:32:24;;;;;;;1.58;0.80;;;;;;;;;;5029113;28;20028;-77
2021/07/12 08:34:50;;;;;;;3.10;1.00;;;;;;;;;;5015770;28;20101;-77
2021/07/12 08:37:17;;;;;;;1.15;1.15;;;;;;;;;;5016670;28;20542;-76
2021/07/12 08:39:43;;;;;;;1.23;0.85;;;;;;;;;;5016963;28;20042;-77
2021/07/12 08:42:12;;;;;;;1.15;0.90;;;;;;;;;;5017038;28;20033;-77
2021/07/12 08:44:39;;;;;;;0.90;0.90;;;;;;;;;;4999719;28;20040;-78
2021/07/12 08:47:08;;;;;;;0.93;0.60;;;;;;;;;;5017929;28;20034;-76
2021/07/12 08:49:34;;;;;;;1.20;1.10;;;;;;;;;;5014904;28;20030;-77
2021/07/12 08:52:01;;;;;;;0.73;0.73;;;;;;;;;;5016460;28;20551;-77
2021/07/12 08:54:28;;;;;;;0.80;0.80;;;;;;;;;;5017507;28;20022;-78
2021/07/12 08:56:55;;;;;;;5.00;1.10;;;;;;;;;;5016429;28;20045;-77
2021/07/12 08:59:40;;;;;;;0.98;0.90;;;;;;;;;;5015064;28;20076;-77
2021/07/12 09:02:10;;;;;;;1.98;0.85;;;;;;;;;;5020024;28;20044;-77
2021/07/12 09:04:38;;;;;;;2.05;1.33;;;;;;;;;;5036588;28;20393;-78
2021/07/12 09:07:05;;;;;;;1.13;1.10;;;;;;;;;;5037131;28;20463;-78
2021/07/12 09:09:31;;;;;;;0.88;0.88;;;;;;;;;;5039736;28;20025;-78
2021/07/12 09:12:08;;;;;;;1.00;1.00;;;;;;;;;;5051366;22;20057;-80
2021/07/12 09:14:39;;;;;;;1.45;1.30;;;;;;;;;;5018528;28;20038;-80
2021/07/12 09:17:06;;;;;;;0.73;0.73;;;;;;;;;;5009900;28;20080;-79
2021/07/12 09:19:35;;;;;;;2.38;0.93;;;;;;;;;;5009491;28;20080;-80
2021/07/12 09:22:01;;;;;;;1.30;1.13;;;;;;;;;;5029243;28;20028;-80
2021/07/12 09:24:28;;;;;;;1.25;1.15;;;;;;;;;;5009751;28;20418;-81
2021/07/12 09:26:56;;;;;;;2.92;0.73;;;;;;;;;;5024622;28;20030;-81
2021/07/12 09:29:24;;;;;;;1.17;1.08;;;;;;;;;;5024206;28;20049;-80
2021/07/12 09:31:53;;;;;;;1.20;1.10;;;;;;;;;;5035037;28;20036;-81
2021/07/12 09:34:20;;;;;;;0.93;0.93;;;;;;;;;;5028191;28;20010;-81
2021/07/12 09:36:47;;;;;;;1.95;1.00;;;;;;;;;;5003716;28;20565;-81
2021/07/12 09:39:17;;;;;;;0.82;0.80;;;;;;;;;;5007591;28;20030;-80
2021/07/12 09:41:43;;;;;;;1.02;1.02;;;;;;;;;;5023916;28;20029;-81
2021/07/12 09:44:10;;;;;;;0.80;0.80;;;;;;;;;;5024769;28;20025;-82
2021/07/12 09:46:36;;;;;;;1.20;1.02;;;;;;;;;;5011894;28;20045;-80
2021/07/12 09:49:12;;;;;;;2.63;1.23;;;;;;;;;;5034449;28;20056;-80
2021/07/12 09:51:38;;;;;;;1.15;1.00;;;;;;;;;;5036361;28;20034;-81
2021/07/12 09:54:19;;;;;;;0.98;0.93;;;;;;;;;;5030927;28;20034;-81
2021/07/12 09:56:46;;;;;;;0.80;0.80;;;;;;;;;;5024956;28;20022;-78
2021/07/12 09:59:13;;;;;;;1.45;0.85;;;;;;;;;;5025782;28;20025;-81
2021/07/12 10:01:41;;;;;;;1.00;0.90;;;;;;;;;;5028175;28;20029;-81
2021/07/12 10:04:08;;;;;;;1.00;1.00;;;;;;;;;;5040950;28;20017;-80
2021/07/12 10:06:35;;;;;;;1.05;0.90;;;;;;;;;;5024670;28;20048;-81
2021/07/12 10:09:02;;;;;;;1.10;1.10;;;;;;;;;;5042862;28;20025;-81
2021/07/12 10:11:28;;;;;;;1.30;1.00;;;;;;;;;;5040896;28;20025;-81
2021/07/12 10:13:56;;;;;;;2.10;1.50;;;;;;;;;;5023176;28;20092;-82
2021/07/12 10:16:22;;;;;;;1.30;1.20;;;;;;;;;;5023381;28;20131;-81
2021/07/12 10:18:48;;;;;;;1.33;1.27;;;;;;;;;;5018361;28;20033;-80
2021/07/12 10:21:14;;;;;;;1.75;1.30;;;;;;;;;;5021195;28;20026;-82
2021/07/12 10:23:40;;;;;;;2.13;0.93;;;;;;;;;;5022446;28;20029;-80
2021/07/12 10:26:07;;;;;;;2.00;1.00;;;;;;;;;;5034110;28;20068;-79
2021/07/12 10:28:40;;;;;;;1.67;1.20;;;;;;;;;;5029870;28;20096;-82
2021/07/12 10:31:36;;;;;;;1.40;1.05;;;;;;;;;;5029001;28;20041;-82
2021/07/12 10:34:02;;;;;;;1.58;1.00;;;;;;;;;;5002597;28;20048;-83
2021/07/12 10:36:38;;;;;;;1.92;1.30;;;;;;;;;;5013500;28;20021;-80
2021/07/12 10:39:04;;;;;;;1.27;0.70;;;;;;;;;;5022974;28;20045;-80
2021/07/12 10:41:30;;;;;;;1.05;1.00;;;;;;;;;;5008465;28;20025;-80
2021/07/12 10:43:57;;;;;;;2.22;1.33;;;;;;;;;;5020422;28;20069;-81
2021/07/12 10:46:27;;;;;;;0.90;0.90;;;;;;;;;;5020672;28;20085;-82
2021/07/12 10:48:53;;;;;;;1.02;0.93;;;;;;;;;;5023940;28;20446;-80
2021/07/12 10:51:23;;;;;;;1.15;0.90;;;;;;;;;;5020464;28;20052;-81
2021/07/12 10:53:59;;;;;;;1.15;1.00;;;;;;;;;;5018780;28;20034;-81
2021/07/12 10:56:41;;;;;;;1.02;1.02;;;;;;;;;;5010914;28;20049;-83
2021/07/12 10:59:07;;;;;;;1.33;1.15;;;;;;;;;;5012870;28;20026;-81
2021/07/12 11:01:37;;;;;;;1.10;1.00;;;;;;;;;;5034017;28;20024;-79
2021/07/12 11:04:23;;;;;;;1.30;1.00;;;;;;;;;;5030436;28;20045;-81
2021/07/12 11:06:54;;;;;;;1.38;1.20;;;;;;;;;;5020800;28;20033;-80
2021/07/12 11:09:39;;;;;;;1.45;1.35;;;;;;;;;;5026664;28;20033;-82
2021/07/12 11:12:24;;;;;;;1.20;1.20;;;;;;;;;;5017639;28;20051;-83
2021/07/12 11:15:10;;;;;;;1.45;1.27;;;;;;;;;;5008831;28;20024;-81
2021/07/12 11:17:52;;;;;;;2.15;1.10;;;;;;;;;;5016235;28;20030;-82
2021/07/12 11:20:38;;;;;;;1.45;1.35;;;;;;;;;;5016514;28;20386;-81
2021/07/12 11:23:04;;;;;;;1.00;0.90;;;;;;;;;;5017493;28;20543;-82
2021/07/12 11:25:39;;;;;;;1.00;1.00;;;;;;;;;;5019860;28;20025;-82
2021/07/12 11:28:10;;;;;;;3.05;1.10;;;;;;;;;;4999242;28;20041;-81
2021/07/12 11:30:36;;;;;;;1.17;1.17;;;;;;;;;;5017651;28;20022;-80
2021/07/12 11:33:03;;;;;;;1.10;1.10;;;;;;;;;;5004302;28;20030;-81
2021/07/12 11:35:29;;;;;;;1.75;1.20;;;;;;;;;;5020161;28;20093;-82
2021/07/12 11:37:59;;;;;;;0.90;0.90;;;;;;;;;;5019608;28;20034;-81
2021/07/12 11:40:25;;;;;;;1.27;1.17;;;;;;;;;;5020878;28;20541;-80
2021/07/12 11:42:51;;;;;;;1.20;1.10;;;;;;;;;;5004247;28;20025;-80
2021/07/12 11:45:19;;;;;;;1.27;1.20;;;;;;;;;;5013327;28;20462;-81
2021/07/12 11:47:53;;;;;;;3.10;1.38;;;;;;;;;;5016404;28;20038;-81
2021/07/12 11:50:27;;;;;;;1.55;1.30;;;;;;;;;;5019611;28;20022;-82
2021/07/12 11:52:55;;;;;;;2.35;1.52;;;;;;;;;;5005667;28;20053;-79
2021/07/12 11:55:22;;;;;;;1.50;1.40;;;;;;;;;;5017434;28;20037;-82
2021/07/12 11:57:49;;;;;;;2.25;1.95;;;;;;;;;;5018663;28;20022;-80
2021/07/12 12:00:20;;;;;;;1.52;1.42;;;;;;;;;;5002456;28;20082;-81
2021/07/12 12:02:46;;;;;;;1.50;1.40;;;;;;;;;;5010877;28;20028;-81
2021/07/12 12:05:14;;;;;;;1.70;1.60;;;;;;;;;;5026032;28;20164;-82
2021/07/12 12:07:41;;;;;;;3.00;1.50;;;;;;;;;;5002293;28;20475;-81
2021/07/12 12:10:07;;;;;;;1.52;1.42;;;;;;;;;;5009502;28;20048;-82
2021/07/12 12:12:39;;;;;;;1.58;1.42;;;;;;;;;;4998513;28;20108;-82
2021/07/12 12:15:07;;;;;;;1.60;1.40;;;;;;;;;;5016081;28;20050;-82
2021/07/12 12:17:38;;;;;;;2.95;1.73;;;;;;;;;;5019648;28;20168;-84
2021/07/12 12:20:10;;;;;;;2.67;2.03;;;;;;;;;;5006185;28;20030;-86
2021/07/12 12:22:37;;;;;;;1.23;1.23;;;;;;;;;;5021514;28;20074;-86
2021/07/12 12:25:07;;;;;;;2.10;2.00;;;;;;;;;;5009383;28;20022;-86
2021/07/12 12:27:34;;;;;;;1.73;1.63;;;;;;;;;;5008644;28;20109;-86
2021/07/12 12:30:00;;;;;;;1.90;1.80;;;;;;;;;;5004529;28;20045;-86
2021/07/12 12:32:33;;;;;;;2.97;1.58;;;;;;;;;;5037590;28;20092;-88
2021/07/12 12:35:00;;;;;;;1.65;1.55;;;;;;;;;;5023147;28;20164;-83
2021/07/12 12:37:41;;;;;;;1.52;1.42;;;;;;;;;;5033028;28;20022;-82
2021/07/12 12:40:09;;;;;;;1.83;1.60;;;;;;;;;;5033959;28;20041;-81
2021/07/12 12:42:35;;;;;;;2.00;1.90;;;;;;;;;;5019563;28;20117;-81
2021/07/12 12:45:01;;;;;;;1.77;1.67;;;;;;;;;;5036861;28;20030;-83
2021/07/12 12:47:28;;;;;;;1.65;1.55;;;;;;;;;;5037939;28;20033;-82
2021/07/12 12:49:55;;;;;;;1.40;1.40;;;;;;;;;;5038143;28;20037;-80
2021/07/12 12:52:21;;;;;;;1.60;1.50;;;;;;;;;;5020065;28;20024;-82
2021/07/12 12:54:49;;;;;;;1.90;1.80;;;;;;;;;;5019677;28;20045;-81
2021/07/12 12:57:16;;;;;;;2.97;1.70;;;;;;;;;;5016687;28;20022;-84
2021/07/12 12:59:46;;;;;;;1.90;1.80;;;;;;;;;;5014933;28;20025;-86
2021/07/12 13:02:16;;;;;;;1.63;1.52;;;;;;;;;;5026129;28;20045;-84
2021/07/12 13:04:43;;;;;;;2.13;1.92;;;;;;;;;;5014050;28;20053;-84
2021/07/12 13:07:12;;;;;;;2.22;1.70;;;;;;;;;;5012226;28;20037;-82
2021/07/12 13:09:38;;;;;;;2.08;1.98;;;;;;;;;;5022763;28;20543;-85
2021/07/12 13:12:05;;;;;;;1.92;1.67;;;;;;;;;;5022490;28;20160;-83
2021/07/12 13:14:31;;;;;;;1.70;1.60;;;;;;;;;;5026702;28;20021;-85
2021/07/12 13:17:10;;;;;;;2.40;2.28;;;;;;;;;;5030002;28;20060;-84
2021/07/12 13:19:39;;;;;;;1.67;1.58;;;;;;;;;;5016828;28;20017;-83
2021/07/12 13:22:18;;;;;;;1.85;1.73;;;;;;;;;;5020870;28;20086;-81
2021/07/12 13:24:45;;;;;;;1.85;1.70;;;;;;;;;;5014590;28;20045;-85
2021/07/12 13:27:41;;;;;;;1.90;1.80;;;;;;;;;;5009544;28;20095;-86
2021/07/12 13:30:12;;;;;;;2.25;2.08;;;;;;;;;;5004623;28;20042;-83
2021/07/12 13:32:39;;;;;;;1.75;1.65;;;;;;;;;;5019712;28;20260;-84
2021/07/12 13:35:07;;;;;;;2.03;1.80;;;;;;;;;;5024164;28;20037;-84
2021/07/12 13:37:33;;;;;;;2.55;2.35;;;;;;;;;;5023952;28;20082;-83
2021/07/12 13:39:59;;;;;;;2.20;2.00;;;;;;;;;;5013156;28;20049;-82
2021/07/12 13:42:25;;;;;;;1.65;1.55;;;;;;;;;;5015324;28;20093;-84
2021/07/12 13:44:52;;;;;;;1.77;1.67;;;;;;;;;;5015791;28;20125;-82
2021/07/12 13:47:18;;;;;;;2.28;1.63;;;;;;;;;;5017510;28;20026;-81
2021/07/12 13:49:44;;;;;;;2.45;1.80;;;;;;;;;;5016808;28;20064;-83
2021/07/12 13:52:10;;;;;;;1.75;1.65;;;;;;;;;;5033798;28;20070;-81
2021/07/12 13:54:37;;;;;;;1.77;1.52;;;;;;;;;;5016040;28;20478;-82
2021/07/12 13:57:12;;;;;;;2.55;1.83;;;;;;;;;;5034758;28;20018;-82
2021/07/12 13:59:41;;;;;;;2.17;1.48;;;;;;;;;;5015381;28;20084;-82
2021/07/12 14:02:11;;;;;;;1.88;1.77;;;;;;;;;;5025480;28;20402;-80
2021/07/12 14:04:38;;;;;;;4.28;1.80;;;;;;;;;;5013823;28;20097;-83
2021/07/12 14:07:04;;;;;;;1.50;1.48;;;;;;;;;;5016446;28;20077;-83
2021/07/12 14:09:30;;;;;;;1.67;1.58;;;;;;;;;;5031337;28;20460;-82
2021/07/12 14:11:57;;;;;;;1.20;1.20;;;;;;;;;;5032790;28;20034;-81
2021/07/12 14:14:23;;;;;;;1.63;1.52;;;;;;;;;;5031982;28;20033;-82
2021/07/12 14:16:49;;;;;;;1.48;1.38;;;;;;;;;;5020496;28;20048;-83
2021/07/12 14:19:15;;;;;;;2.65;1.25;;;;;;;;;;5025447;28;20112;-81
2021/07/12 14:21:41;;;;;;;1.73;1.63;;;;;;;;;;5032620;28;20040;-82
2021/07/12 14:24:08;;;;;;;1.00;1.00;;;;;;;;;;5033011;28;20044;-79
2021/07/12 14:26:35;;;;;;;1.90;1.58;;;;;;;;;;5037054;28;20087;-81
2021/07/12 14:29:01;;;;;;;1.50;1.40;;;;;;;;;;5011014;28;20038;-82
2021/07/12 14:31:27;;;;;;;3.97;1.67;;;;;;;;;;5020378;28;20025;-83
2021/07/12 14:33:54;;;;;;;1.35;1.25;;;;;;;;;;5013804;28;20030;-84
2021/07/12 14:36:20;;;;;;;1.80;1.70;;;;;;;;;;5032700;28;20053;-82
2021/07/12 14:38:46;;;;;;;1.13;1.13;;;;;;;;;;5031976;28;20085;-81
2021/07/12 14:41:13;;;;;;;1.40;1.30;;;;;;;;;;5032191;28;20044;-81
2021/07/12 14:43:39;;;;;;;1.70;1.33;;;;;;;;;;5034530;28;20034;-80
2021/07/12 14:46:05;;;;;;;1.67;1.30;;;;;;;;;;5032836;28;20425;-83
2021/07/12 14:48:31;;;;;;;2.42;1.17;;;;;;;;;;5051366;28;20071;-82